sensor_id;sensor_type;location;lat;lon;timestamp;P1;durP1;ratioP1;P2;durP2;ratioP2
15071;SDS011;7635;56.696;13.002;2023-05-31T00:00:31;1.42;;;1.08;;
15071;SDS011;7635;56.696;13.002;2023-05-31T00:02:58;1.55;;;1.45;;
15071;SDS011;7635;56.696;13.002;2023-05-31T00:05:25;1.98;;;1.33;;
15071;SDS011;7635;56.696;13.002;2023-05-31T00:07:53;1.27;;;1.17;;
15071;SDS011;7635;56.696;13.002;2023-05-31T00:10:20;2.25;;;1.48;;
15071;SDS011;7635;56.696;13.002;2023-05-31T00:12:47;1.27;;;1.17;;
15071;SDS011;7635;56.696;13.002;2023-05-31T00:15:13;3.20;;;1.58;;
15071;SDS011;7635;56.696;13.002;2023-05-31T00:17:40;1.45;;;1.23;;
15071;SDS011;7635;56.696;13.002;2023-05-31T00:20:07;1.70;;;1.27;;
15071;SDS011;7635;56.696;13.002;2023-05-31T00:22:34;1.42;;;1.33;;
15071;SDS011;7635;56.696;13.002;2023-05-31T00:25:02;1.15;;;1.15;;
15071;SDS011;7635;56.696;13.002;2023-05-31T00:27:30;1.75;;;1.25;;
15071;SDS011;7635;56.696;13.002;2023-05-31T00:29:56;2.03;;;1.27;;
15071;SDS011;7635;56.696;13.002;2023-05-31T00:32:23;1.50;;;1.40;;
15071;SDS011;7635;56.696;13.002;2023-05-31T00:34:50;2.42;;;1.40;;
15071;SDS011;7635;56.696;13.002;2023-05-31T00:37:16;1.27;;;1.20;;
15071;SDS011;7635;56.696;13.002;2023-05-31T00:39:43;2.58;;;1.48;;
15071;SDS011;7635;56.696;13.002;2023-05-31T00:42:11;1.92;;;1.42;;
15071;SDS011;7635;56.696;13.002;2023-05-31T00:44:38;1.98;;;1.60;;
15071;SDS011;7635;56.696;13.002;2023-05-31T00:47:05;2.78;;;1.70;;
15071;SDS011;7635;56.696;13.002;2023-05-31T00:49:32;2.67;;;1.40;;
15071;SDS011;7635;56.696;13.002;2023-05-31T00:51:59;3.92;;;1.80;;
15071;SDS011;7635;56.696;13.002;2023-05-31T00:54:26;2.63;;;1.50;;
15071;SDS011;7635;56.696;13.002;2023-05-31T00:56:53;1.30;;;1.20;;
15071;SDS011;7635;56.696;13.002;2023-05-31T00:59:21;3.42;;;1.50;;
15071;SDS011;7635;56.696;13.002;2023-05-31T01:01:48;4.43;;;1.52;;
15071;SDS011;7635;56.696;13.002;2023-05-31T01:04:15;2.20;;;1.70;;
15071;SDS011;7635;56.696;13.002;2023-05-31T01:06:42;1.33;;;1.25;;
15071;SDS011;7635;56.696;13.002;2023-05-31T01:09:09;1.75;;;1.40;;
15071;SDS011;7635;56.696;13.002;2023-05-31T01:11:50;1.60;;;1.50;;
15071;SDS011;7635;56.696;13.002;2023-05-31T01:14:29;1.75;;;1.50;;
15071;SDS011;7635;56.696;13.002;2023-05-31T01:17:05;1.42;;;1.27;;
15071;SDS011;7635;56.696;13.002;2023-05-31T01:19:42;3.88;;;1.45;;
15071;SDS011;7635;56.696;13.002;2023-05-31T01:22:13;1.70;;;1.30;;
15071;SDS011;7635;56.696;13.002;2023-05-31T01:24:51;1.40;;;1.27;;
15071;SDS011;7635;56.696;13.002;2023-05-31T01:27:25;3.55;;;1.58;;
15071;SDS011;7635;56.696;13.002;2023-05-31T01:29:53;1.50;;;1.23;;
15071;SDS011;7635;56.696;13.002;2023-05-31T01:32:21;1.80;;;1.33;;
15071;SDS011;7635;56.696;13.002;2023-05-31T01:34:49;1.40;;;1.30;;
15071;SDS011;7635;56.696;13.002;2023-05-31T01:37:16;2.65;;;1.42;;
15071;SDS011;7635;56.696;13.002;2023-05-31T01:39:43;1.38;;;1.27;;
15071;SDS011;7635;56.696;13.002;2023-05-31T01:42:11;1.60;;;1.50;;
15071;SDS011;7635;56.696;13.002;2023-05-31T01:44:40;1.40;;;1.30;;
15071;SDS011;7635;56.696;13.002;2023-05-31T01:47:08;2.10;;;1.33;;
15071;SDS011;7635;56.696;13.002;2023-05-31T01:49:35;2.22;;;1.38;;
15071;SDS011;7635;56.696;13.002;2023-05-31T01:52:03;3.83;;;1.40;;
15071;SDS011;7635;56.696;13.002;2023-05-31T01:54:32;1.52;;;1.40;;
15071;SDS011;7635;56.696;13.002;2023-05-31T01:56:59;2.85;;;1.50;;
15071;SDS011;7635;56.696;13.002;2023-05-31T01:59:29;1.40;;;1.30;;
15071;SDS011;7635;56.696;13.002;2023-05-31T02:01:57;2.22;;;1.27;;
15071;SDS011;7635;56.696;13.002;2023-05-31T02:04:24;2.78;;;1.45;;
15071;SDS011;7635;56.696;13.002;2023-05-31T02:06:51;1.25;;;1.15;;
15071;SDS011;7635;56.696;13.002;2023-05-31T02:09:19;2.08;;;1.30;;
15071;SDS011;7635;56.696;13.002;2023-05-31T02:11:46;1.50;;;1.40;;
15071;SDS011;7635;56.696;13.002;2023-05-31T02:14:13;3.58;;;1.55;;
15071;SDS011;7635;56.696;13.002;2023-05-31T02:16:39;3.50;;;1.48;;
15071;SDS011;7635;56.696;13.002;2023-05-31T02:19:07;2.58;;;1.67;;
15071;SDS011;7635;56.696;13.002;2023-05-31T02:21:38;1.58;;;1.40;;
15071;SDS011;7635;56.696;13.002;2023-05-31T02:24:05;1.33;;;1.10;;
15071;SDS011;7635;56.696;13.002;2023-05-31T02:26:32;2.15;;;1.33;;
15071;SDS011;7635;56.696;13.002;2023-05-31T02:28:59;2.10;;;1.70;;
15071;SDS011;7635;56.696;13.002;2023-05-31T02:31:26;4.38;;;1.83;;
15071;SDS011;7635;56.696;13.002;2023-05-31T02:33:52;3.33;;;1.63;;
15071;SDS011;7635;56.696;13.002;2023-05-31T02:36:21;2.63;;;1.75;;
15071;SDS011;7635;56.696;13.002;2023-05-31T02:38:48;1.80;;;1.63;;
15071;SDS011;7635;56.696;13.002;2023-05-31T02:41:15;2.95;;;1.25;;
15071;SDS011;7635;56.696;13.002;2023-05-31T02:43:41;3.00;;;1.70;;
15071;SDS011;7635;56.696;13.002;2023-05-31T02:46:08;2.15;;;1.40;;
15071;SDS011;7635;56.696;13.002;2023-05-31T02:48:35;2.20;;;1.63;;
15071;SDS011;7635;56.696;13.002;2023-05-31T02:51:01;3.20;;;1.50;;
15071;SDS011;7635;56.696;13.002;2023-05-31T02:53:30;1.60;;;1.40;;
15071;SDS011;7635;56.696;13.002;2023-05-31T02:55:57;1.75;;;1.52;;
15071;SDS011;7635;56.696;13.002;2023-05-31T02:58:23;1.52;;;1.42;;
15071;SDS011;7635;56.696;13.002;2023-05-31T03:00:50;3.10;;;1.40;;
15071;SDS011;7635;56.696;13.002;2023-05-31T03:03:17;2.08;;;1.52;;
15071;SDS011;7635;56.696;13.002;2023-05-31T03:05:44;2.80;;;1.70;;
15071;SDS011;7635;56.696;13.002;2023-05-31T03:08:10;2.33;;;1.60;;
15071;SDS011;7635;56.696;13.002;2023-05-31T03:10:38;2.47;;;1.38;;
15071;SDS011;7635;56.696;13.002;2023-05-31T03:13:05;2.58;;;1.80;;
15071;SDS011;7635;56.696;13.002;2023-05-31T03:15:32;1.85;;;1.67;;
15071;SDS011;7635;56.696;13.002;2023-05-31T03:18:00;2.58;;;1.27;;
15071;SDS011;7635;56.696;13.002;2023-05-31T03:20:27;1.98;;;1.52;;
15071;SDS011;7635;56.696;13.002;2023-05-31T03:22:55;2.28;;;1.67;;
15071;SDS011;7635;56.696;13.002;2023-05-31T03:25:22;3.25;;;1.80;;
15071;SDS011;7635;56.696;13.002;2023-05-31T03:27:50;2.15;;;1.58;;
15071;SDS011;7635;56.696;13.002;2023-05-31T03:30:17;3.28;;;1.50;;
15071;SDS011;7635;56.696;13.002;2023-05-31T03:32:43;4.20;;;1.65;;
15071;SDS011;7635;56.696;13.002;2023-05-31T03:35:10;3.67;;;1.48;;
15071;SDS011;7635;56.696;13.002;2023-05-31T03:37:38;1.40;;;1.30;;
15071;SDS011;7635;56.696;13.002;2023-05-31T03:40:05;3.25;;;1.65;;
15071;SDS011;7635;56.696;13.002;2023-05-31T03:42:33;4.63;;;1.40;;
15071;SDS011;7635;56.696;13.002;2023-05-31T03:45:02;3.10;;;1.48;;
15071;SDS011;7635;56.696;13.002;2023-05-31T03:47:29;3.15;;;1.23;;
15071;SDS011;7635;56.696;13.002;2023-05-31T03:49:55;2.70;;;1.52;;
15071;SDS011;7635;56.696;13.002;2023-05-31T03:52:22;1.38;;;1.27;;
15071;SDS011;7635;56.696;13.002;2023-05-31T03:54:49;2.28;;;1.60;;
15071;SDS011;7635;56.696;13.002;2023-05-31T03:57:16;1.83;;;1.55;;
15071;SDS011;7635;56.696;13.002;2023-05-31T03:59:42;1.40;;;1.30;;
15071;SDS011;7635;56.696;13.002;2023-05-31T04:02:10;3.67;;;1.67;;
15071;SDS011;7635;56.696;13.002;2023-05-31T04:04:37;3.38;;;1.40;;
15071;SDS011;7635;56.696;13.002;2023-05-31T04:07:04;3.78;;;1.60;;
15071;SDS011;7635;56.696;13.002;2023-05-31T04:09:31;1.67;;;1.10;;
15071;SDS011;7635;56.696;13.002;2023-05-31T04:11:57;1.35;;;1.25;;
15071;SDS011;7635;56.696;13.002;2023-05-31T04:14:24;1.98;;;1.15;;
15071;SDS011;7635;56.696;13.002;2023-05-31T04:16:51;0.98;;;0.98;;
15071;SDS011;7635;56.696;13.002;2023-05-31T04:19:19;1.58;;;1.15;;
15071;SDS011;7635;56.696;13.002;2023-05-31T04:21:46;2.33;;;1.52;;
15071;SDS011;7635;56.696;13.002;2023-05-31T04:24:12;1.30;;;1.20;;
15071;SDS011;7635;56.696;13.002;2023-05-31T04:26:39;1.95;;;1.25;;
15071;SDS011;7635;56.696;13.002;2023-05-31T04:29:06;1.30;;;1.20;;
15071;SDS011;7635;56.696;13.002;2023-05-31T04:31:34;1.05;;;1.05;;
15071;SDS011;7635;56.696;13.002;2023-05-31T04:34:01;1.85;;;0.95;;
15071;SDS011;7635;56.696;13.002;2023-05-31T04:36:31;3.20;;;1.00;;
15071;SDS011;7635;56.696;13.002;2023-05-31T04:39:00;1.50;;;1.15;;
15071;SDS011;7635;56.696;13.002;2023-05-31T04:41:30;1.48;;;1.30;;
15071;SDS011;7635;56.696;13.002;2023-05-31T04:43:57;1.02;;;0.93;;
15071;SDS011;7635;56.696;13.002;2023-05-31T04:46:24;2.53;;;1.30;;
15071;SDS011;7635;56.696;13.002;2023-05-31T04:48:50;0.95;;;0.93;;
15071;SDS011;7635;56.696;13.002;2023-05-31T04:51:17;3.72;;;0.90;;
15071;SDS011;7635;56.696;13.002;2023-05-31T04:53:46;1.27;;;1.15;;
15071;SDS011;7635;56.696;13.002;2023-05-31T04:56:12;2.85;;;1.05;;
15071;SDS011;7635;56.696;13.002;2023-05-31T04:58:39;1.83;;;1.30;;
15071;SDS011;7635;56.696;13.002;2023-05-31T05:01:07;2.30;;;0.93;;
15071;SDS011;7635;56.696;13.002;2023-05-31T05:03:33;0.80;;;0.80;;
15071;SDS011;7635;56.696;13.002;2023-05-31T05:06:00;1.20;;;1.10;;
15071;SDS011;7635;56.696;13.002;2023-05-31T05:08:37;0.80;;;0.80;;
15071;SDS011;7635;56.696;13.002;2023-05-31T05:11:05;1.30;;;1.00;;
15071;SDS011;7635;56.696;13.002;2023-05-31T05:13:32;2.28;;;1.05;;
15071;SDS011;7635;56.696;13.002;2023-05-31T05:15:58;1.02;;;1.02;;
15071;SDS011;7635;56.696;13.002;2023-05-31T05:18:25;0.82;;;0.82;;
15071;SDS011;7635;56.696;13.002;2023-05-31T05:20:52;0.80;;;0.80;;
15071;SDS011;7635;56.696;13.002;2023-05-31T05:23:19;0.90;;;0.90;;
15071;SDS011;7635;56.696;13.002;2023-05-31T05:25:46;3.65;;;0.85;;
15071;SDS011;7635;56.696;13.002;2023-05-31T05:28:14;0.82;;;0.82;;
15071;SDS011;7635;56.696;13.002;2023-05-31T05:30:40;1.00;;;0.98;;
15071;SDS011;7635;56.696;13.002;2023-05-31T05:33:08;0.93;;;0.90;;
15071;SDS011;7635;56.696;13.002;2023-05-31T05:35:35;1.05;;;0.85;;
15071;SDS011;7635;56.696;13.002;2023-05-31T05:38:01;0.80;;;0.80;;
15071;SDS011;7635;56.696;13.002;2023-05-31T05:40:28;1.27;;;1.05;;
15071;SDS011;7635;56.696;13.002;2023-05-31T05:42:55;1.90;;;1.17;;
15071;SDS011;7635;56.696;13.002;2023-05-31T05:45:23;1.10;;;1.00;;
15071;SDS011;7635;56.696;13.002;2023-05-31T05:47:49;1.50;;;1.08;;
15071;SDS011;7635;56.696;13.002;2023-05-31T05:50:16;1.50;;;1.25;;
15071;SDS011;7635;56.696;13.002;2023-05-31T05:52:43;1.65;;;1.00;;
15071;SDS011;7635;56.696;13.002;2023-05-31T05:55:10;0.77;;;0.75;;
15071;SDS011;7635;56.696;13.002;2023-05-31T05:57:36;0.57;;;0.57;;
15071;SDS011;7635;56.696;13.002;2023-05-31T06:00:03;1.23;;;0.77;;
15071;SDS011;7635;56.696;13.002;2023-05-31T06:02:37;1.45;;;0.93;;
15071;SDS011;7635;56.696;13.002;2023-05-31T06:05:04;1.45;;;0.90;;
15071;SDS011;7635;56.696;13.002;2023-05-31T06:07:31;1.85;;;1.00;;
15071;SDS011;7635;56.696;13.002;2023-05-31T06:09:57;0.77;;;0.77;;
15071;SDS011;7635;56.696;13.002;2023-05-31T06:12:24;2.53;;;1.23;;
15071;SDS011;7635;56.696;13.002;2023-05-31T06:14:51;0.73;;;0.73;;
15071;SDS011;7635;56.696;13.002;2023-05-31T06:17:18;3.03;;;1.20;;
15071;SDS011;7635;56.696;13.002;2023-05-31T06:19:46;2.30;;;1.17;;
15071;SDS011;7635;56.696;13.002;2023-05-31T06:22:13;2.65;;;1.33;;
15071;SDS011;7635;56.696;13.002;2023-05-31T06:24:39;1.33;;;0.90;;
15071;SDS011;7635;56.696;13.002;2023-05-31T06:27:06;2.00;;;1.27;;
15071;SDS011;7635;56.696;13.002;2023-05-31T06:29:33;1.52;;;1.08;;
15071;SDS011;7635;56.696;13.002;2023-05-31T06:32:00;3.03;;;1.35;;
15071;SDS011;7635;56.696;13.002;2023-05-31T06:34:26;2.10;;;1.33;;
15071;SDS011;7635;56.696;13.002;2023-05-31T06:36:54;1.83;;;1.38;;
15071;SDS011;7635;56.696;13.002;2023-05-31T06:39:22;3.05;;;1.38;;
15071;SDS011;7635;56.696;13.002;2023-05-31T06:41:48;3.42;;;1.27;;
15071;SDS011;7635;56.696;13.002;2023-05-31T06:44:15;2.00;;;1.20;;
15071;SDS011;7635;56.696;13.002;2023-05-31T06:46:42;1.65;;;0.98;;
15071;SDS011;7635;56.696;13.002;2023-05-31T06:49:08;4.30;;;1.50;;
15071;SDS011;7635;56.696;13.002;2023-05-31T06:51:35;2.17;;;1.40;;
15071;SDS011;7635;56.696;13.002;2023-05-31T06:54:03;3.45;;;1.60;;
15071;SDS011;7635;56.696;13.002;2023-05-31T06:56:30;2.05;;;1.25;;
15071;SDS011;7635;56.696;13.002;2023-05-31T06:58:57;2.85;;;1.58;;
15071;SDS011;7635;56.696;13.002;2023-05-31T07:01:24;2.60;;;1.10;;
15071;SDS011;7635;56.696;13.002;2023-05-31T07:03:50;3.90;;;1.05;;
15071;SDS011;7635;56.696;13.002;2023-05-31T07:06:17;3.65;;;1.80;;
15071;SDS011;7635;56.696;13.002;2023-05-31T07:08:44;2.13;;;1.30;;
15071;SDS011;7635;56.696;13.002;2023-05-31T07:11:12;2.55;;;1.52;;
15071;SDS011;7635;56.696;13.002;2023-05-31T07:13:39;11.60;;;1.67;;
15071;SDS011;7635;56.696;13.002;2023-05-31T07:16:06;3.47;;;1.80;;
15071;SDS011;7635;56.696;13.002;2023-05-31T07:18:33;2.08;;;1.58;;
15071;SDS011;7635;56.696;13.002;2023-05-31T07:21:00;4.82;;;2.20;;
15071;SDS011;7635;56.696;13.002;2023-05-31T07:23:26;3.53;;;1.95;;
15071;SDS011;7635;56.696;13.002;2023-05-31T07:25:53;4.00;;;1.67;;
15071;SDS011;7635;56.696;13.002;2023-05-31T07:28:23;3.55;;;1.85;;
15071;SDS011;7635;56.696;13.002;2023-05-31T07:30:50;5.13;;;2.08;;
15071;SDS011;7635;56.696;13.002;2023-05-31T07:33:16;8.73;;;1.98;;
15071;SDS011;7635;56.696;13.002;2023-05-31T07:35:43;4.78;;;2.08;;
15071;SDS011;7635;56.696;13.002;2023-05-31T07:38:10;1.92;;;1.48;;
15071;SDS011;7635;56.696;13.002;2023-05-31T07:40:37;4.85;;;2.20;;
15071;SDS011;7635;56.696;13.002;2023-05-31T07:43:03;7.22;;;1.75;;
15071;SDS011;7635;56.696;13.002;2023-05-31T07:45:31;5.72;;;2.05;;
15071;SDS011;7635;56.696;13.002;2023-05-31T07:47:58;4.43;;;2.00;;
15071;SDS011;7635;56.696;13.002;2023-05-31T07:50:25;5.50;;;2.35;;
15071;SDS011;7635;56.696;13.002;2023-05-31T07:52:51;3.72;;;1.85;;
15071;SDS011;7635;56.696;13.002;2023-05-31T07:55:18;3.70;;;1.92;;
15071;SDS011;7635;56.696;13.002;2023-05-31T07:57:45;3.97;;;2.05;;
15071;SDS011;7635;56.696;13.002;2023-05-31T08:00:11;3.15;;;2.08;;
15071;SDS011;7635;56.696;13.002;2023-05-31T08:02:40;4.50;;;1.95;;
15071;SDS011;7635;56.696;13.002;2023-05-31T08:05:08;2.38;;;1.70;;
15071;SDS011;7635;56.696;13.002;2023-05-31T08:07:35;1.50;;;1.40;;
15071;SDS011;7635;56.696;13.002;2023-05-31T08:10:02;8.48;;;2.55;;
15071;SDS011;7635;56.696;13.002;2023-05-31T08:12:29;3.33;;;1.73;;
15071;SDS011;7635;56.696;13.002;2023-05-31T08:14:55;4.47;;;2.08;;
15071;SDS011;7635;56.696;13.002;2023-05-31T08:17:22;3.95;;;2.20;;
15071;SDS011;7635;56.696;13.002;2023-05-31T08:19:50;6.10;;;2.38;;
15071;SDS011;7635;56.696;13.002;2023-05-31T08:22:17;3.58;;;1.65;;
15071;SDS011;7635;56.696;13.002;2023-05-31T08:24:44;3.72;;;1.42;;
15071;SDS011;7635;56.696;13.002;2023-05-31T08:27:11;4.03;;;1.92;;
15071;SDS011;7635;56.696;13.002;2023-05-31T08:29:37;4.05;;;2.15;;
15071;SDS011;7635;56.696;13.002;2023-05-31T08:32:04;2.22;;;1.85;;
15071;SDS011;7635;56.696;13.002;2023-05-31T08:34:31;4.32;;;2.28;;
15071;SDS011;7635;56.696;13.002;2023-05-31T08:36:59;3.75;;;1.85;;
15071;SDS011;7635;56.696;13.002;2023-05-31T08:39:26;3.38;;;1.77;;
15071;SDS011;7635;56.696;13.002;2023-05-31T08:41:53;3.47;;;2.20;;
15071;SDS011;7635;56.696;13.002;2023-05-31T08:44:25;8.00;;;3.13;;
15071;SDS011;7635;56.696;13.002;2023-05-31T08:46:52;3.30;;;2.38;;
15071;SDS011;7635;56.696;13.002;2023-05-31T08:49:21;6.05;;;3.08;;
15071;SDS011;7635;56.696;13.002;2023-05-31T08:51:49;5.38;;;2.30;;
15071;SDS011;7635;56.696;13.002;2023-05-31T08:54:17;4.03;;;2.15;;
15071;SDS011;7635;56.696;13.002;2023-05-31T08:56:45;5.85;;;2.60;;
15071;SDS011;7635;56.696;13.002;2023-05-31T08:59:12;6.53;;;2.28;;
15071;SDS011;7635;56.696;13.002;2023-05-31T09:01:42;4.82;;;2.20;;
15071;SDS011;7635;56.696;13.002;2023-05-31T09:04:09;10.82;;;2.80;;
15071;SDS011;7635;56.696;13.002;2023-05-31T09:06:36;7.68;;;2.65;;
15071;SDS011;7635;56.696;13.002;2023-05-31T09:09:03;8.55;;;2.22;;
15071;SDS011;7635;56.696;13.002;2023-05-31T09:11:35;6.80;;;2.70;;
15071;SDS011;7635;56.696;13.002;2023-05-31T09:14:04;3.95;;;2.25;;
15071;SDS011;7635;56.696;13.002;2023-05-31T09:16:31;6.55;;;2.28;;
15071;SDS011;7635;56.696;13.002;2023-05-31T09:19:01;5.10;;;2.40;;
15071;SDS011;7635;56.696;13.002;2023-05-31T09:21:33;11.88;;;2.90;;
15071;SDS011;7635;56.696;13.002;2023-05-31T09:24:04;3.95;;;2.35;;
15071;SDS011;7635;56.696;13.002;2023-05-31T09:26:31;7.97;;;2.70;;
15071;SDS011;7635;56.696;13.002;2023-05-31T09:29:00;5.32;;;2.60;;
15071;SDS011;7635;56.696;13.002;2023-05-31T09:31:27;4.60;;;2.25;;
15071;SDS011;7635;56.696;13.002;2023-05-31T09:33:54;4.15;;;2.35;;
15071;SDS011;7635;56.696;13.002;2023-05-31T09:36:24;5.63;;;2.35;;
15071;SDS011;7635;56.696;13.002;2023-05-31T09:38:57;5.57;;;2.08;;
15071;SDS011;7635;56.696;13.002;2023-05-31T09:41:26;3.88;;;1.92;;
15071;SDS011;7635;56.696;13.002;2023-05-31T09:43:53;9.00;;;2.25;;
15071;SDS011;7635;56.696;13.002;2023-05-31T09:46:21;6.20;;;1.95;;
15071;SDS011;7635;56.696;13.002;2023-05-31T09:48:56;3.45;;;2.58;;
15071;SDS011;7635;56.696;13.002;2023-05-31T09:51:24;6.05;;;2.35;;
15071;SDS011;7635;56.696;13.002;2023-05-31T09:53:51;5.95;;;1.90;;
15071;SDS011;7635;56.696;13.002;2023-05-31T09:56:20;3.22;;;2.15;;
15071;SDS011;7635;56.696;13.002;2023-05-31T09:58:48;8.02;;;2.47;;
15071;SDS011;7635;56.696;13.002;2023-05-31T10:01:16;3.97;;;2.90;;
15071;SDS011;7635;56.696;13.002;2023-05-31T10:03:44;8.43;;;2.20;;
15071;SDS011;7635;56.696;13.002;2023-05-31T10:06:11;5.80;;;2.78;;
15071;SDS011;7635;56.696;13.002;2023-05-31T10:08:41;5.28;;;2.60;;
15071;SDS011;7635;56.696;13.002;2023-05-31T10:11:09;4.50;;;2.50;;
15071;SDS011;7635;56.696;13.002;2023-05-31T10:13:38;3.35;;;1.90;;
15071;SDS011;7635;56.696;13.002;2023-05-31T10:16:09;9.65;;;3.03;;
15071;SDS011;7635;56.696;13.002;2023-05-31T10:18:38;4.68;;;2.53;;
15071;SDS011;7635;56.696;13.002;2023-05-31T10:21:13;5.00;;;2.15;;
15071;SDS011;7635;56.696;13.002;2023-05-31T10:23:49;7.57;;;3.25;;
15071;SDS011;7635;56.696;13.002;2023-05-31T10:26:21;3.53;;;2.10;;
15071;SDS011;7635;56.696;13.002;2023-05-31T10:28:51;3.75;;;2.17;;
15071;SDS011;7635;56.696;13.002;2023-05-31T10:31:22;5.18;;;2.28;;
15071;SDS011;7635;56.696;13.002;2023-05-31T10:33:53;4.72;;;2.13;;
15071;SDS011;7635;56.696;13.002;2023-05-31T10:36:23;5.32;;;2.60;;
15071;SDS011;7635;56.696;13.002;2023-05-31T10:38:52;4.70;;;2.60;;
15071;SDS011;7635;56.696;13.002;2023-05-31T10:41:26;8.13;;;2.20;;
15071;SDS011;7635;56.696;13.002;2023-05-31T10:44:00;4.55;;;2.40;;
15071;SDS011;7635;56.696;13.002;2023-05-31T10:46:32;6.55;;;2.67;;
15071;SDS011;7635;56.696;13.002;2023-05-31T10:49:01;6.15;;;2.42;;
15071;SDS011;7635;56.696;13.002;2023-05-31T10:51:41;5.63;;;2.30;;
15071;SDS011;7635;56.696;13.002;2023-05-31T10:54:10;6.38;;;2.20;;
15071;SDS011;7635;56.696;13.002;2023-05-31T10:56:45;5.18;;;2.15;;
15071;SDS011;7635;56.696;13.002;2023-05-31T10:59:18;9.95;;;2.58;;
15071;SDS011;7635;56.696;13.002;2023-05-31T11:01:44;3.72;;;1.50;;
15071;SDS011;7635;56.696;13.002;2023-05-31T11:04:18;1.60;;;1.48;;
15071;SDS011;7635;56.696;13.002;2023-05-31T11:06:48;5.07;;;2.28;;
15071;SDS011;7635;56.696;13.002;2023-05-31T11:09:18;3.15;;;1.45;;
15071;SDS011;7635;56.696;13.002;2023-05-31T11:11:45;7.43;;;2.58;;
15071;SDS011;7635;56.696;13.002;2023-05-31T11:14:24;7.35;;;2.75;;
15071;SDS011;7635;56.696;13.002;2023-05-31T11:19:39;7.95;;;2.45;;
15071;SDS011;7635;56.696;13.002;2023-05-31T11:22:10;9.43;;;2.42;;
15071;SDS011;7635;56.696;13.002;2023-05-31T11:24:47;8.48;;;2.42;;
15071;SDS011;7635;56.696;13.002;2023-05-31T11:27:15;5.30;;;2.83;;
15071;SDS011;7635;56.696;13.002;2023-05-31T11:29:55;0.95;;;0.88;;
15071;SDS011;7635;56.696;13.002;2023-05-31T11:35:22;5.15;;;2.92;;
15071;SDS011;7635;56.696;13.002;2023-05-31T11:37:50;3.10;;;1.73;;
15071;SDS011;7635;56.696;13.002;2023-05-31T11:40:26;4.43;;;2.17;;
15071;SDS011;7635;56.696;13.002;2023-05-31T11:42:53;5.78;;;2.47;;
15071;SDS011;7635;56.696;13.002;2023-05-31T11:45:32;6.93;;;2.80;;
15071;SDS011;7635;56.696;13.002;2023-05-31T11:48:04;6.63;;;1.98;;
15071;SDS011;7635;56.696;13.002;2023-05-31T11:50:45;4.50;;;1.95;;
15071;SDS011;7635;56.696;13.002;2023-05-31T11:53:13;7.72;;;2.75;;
15071;SDS011;7635;56.696;13.002;2023-05-31T11:55:44;5.07;;;2.33;;
15071;SDS011;7635;56.696;13.002;2023-05-31T11:58:12;9.35;;;2.95;;
15071;SDS011;7635;56.696;13.002;2023-05-31T12:00:42;6.40;;;1.55;;
15071;SDS011;7635;56.696;13.002;2023-05-31T12:03:13;2.70;;;2.13;;
15071;SDS011;7635;56.696;13.002;2023-05-31T12:05:41;4.20;;;2.00;;
15071;SDS011;7635;56.696;13.002;2023-05-31T12:08:10;4.32;;;2.13;;
15071;SDS011;7635;56.696;13.002;2023-05-31T12:10:40;6.57;;;2.28;;
15071;SDS011;7635;56.696;13.002;2023-05-31T12:13:07;8.43;;;2.67;;
15071;SDS011;7635;56.696;13.002;2023-05-31T12:15:35;2.63;;;1.98;;
15071;SDS011;7635;56.696;13.002;2023-05-31T12:18:01;5.45;;;2.65;;
15071;SDS011;7635;56.696;13.002;2023-05-31T12:20:28;8.95;;;2.10;;
15071;SDS011;7635;56.696;13.002;2023-05-31T12:23:08;4.32;;;2.33;;
15071;SDS011;7635;56.696;13.002;2023-05-31T12:25:35;6.38;;;2.10;;
15071;SDS011;7635;56.696;13.002;2023-05-31T12:28:03;7.90;;;2.90;;
15071;SDS011;7635;56.696;13.002;2023-05-31T12:30:30;7.10;;;2.50;;
15071;SDS011;7635;56.696;13.002;2023-05-31T12:32:57;4.63;;;2.30;;
15071;SDS011;7635;56.696;13.002;2023-05-31T12:35:24;5.05;;;2.00;;
15071;SDS011;7635;56.696;13.002;2023-05-31T12:37:51;5.65;;;2.42;;
15071;SDS011;7635;56.696;13.002;2023-05-31T12:40:19;5.65;;;1.85;;
15071;SDS011;7635;56.696;13.002;2023-05-31T12:42:47;5.82;;;2.42;;
15071;SDS011;7635;56.696;13.002;2023-05-31T12:45:17;4.28;;;1.92;;
15071;SDS011;7635;56.696;13.002;2023-05-31T12:47:44;6.03;;;2.30;;
15071;SDS011;7635;56.696;13.002;2023-05-31T12:50:21;7.07;;;2.38;;
15071;SDS011;7635;56.696;13.002;2023-05-31T12:52:54;4.65;;;1.98;;
15071;SDS011;7635;56.696;13.002;2023-05-31T12:55:22;4.43;;;2.47;;
15071;SDS011;7635;56.696;13.002;2023-05-31T12:57:48;9.55;;;2.25;;
15071;SDS011;7635;56.696;13.002;2023-05-31T13:00:17;4.70;;;2.28;;
15071;SDS011;7635;56.696;13.002;2023-05-31T13:02:43;8.95;;;3.33;;
15071;SDS011;7635;56.696;13.002;2023-05-31T13:05:10;5.47;;;2.15;;
15071;SDS011;7635;56.696;13.002;2023-05-31T13:07:37;4.75;;;2.20;;
15071;SDS011;7635;56.696;13.002;2023-05-31T13:10:05;5.47;;;2.40;;
15071;SDS011;7635;56.696;13.002;2023-05-31T13:12:33;5.80;;;2.50;;
15071;SDS011;7635;56.696;13.002;2023-05-31T13:15:00;4.22;;;1.75;;
15071;SDS011;7635;56.696;13.002;2023-05-31T13:17:29;4.15;;;1.83;;
15071;SDS011;7635;56.696;13.002;2023-05-31T13:19:56;3.20;;;2.05;;
15071;SDS011;7635;56.696;13.002;2023-05-31T13:22:22;5.05;;;2.80;;
15071;SDS011;7635;56.696;13.002;2023-05-31T13:24:49;5.57;;;2.00;;
15071;SDS011;7635;56.696;13.002;2023-05-31T13:27:16;5.13;;;2.50;;
15071;SDS011;7635;56.696;13.002;2023-05-31T13:29:43;3.17;;;2.05;;
15071;SDS011;7635;56.696;13.002;2023-05-31T13:32:09;7.72;;;2.60;;
15071;SDS011;7635;56.696;13.002;2023-05-31T13:34:37;5.45;;;1.80;;
15071;SDS011;7635;56.696;13.002;2023-05-31T13:37:04;6.25;;;2.40;;
15071;SDS011;7635;56.696;13.002;2023-05-31T13:39:31;4.35;;;2.22;;
15071;SDS011;7635;56.696;13.002;2023-05-31T13:41:58;4.05;;;2.05;;
15071;SDS011;7635;56.696;13.002;2023-05-31T13:44:26;3.42;;;1.90;;
15071;SDS011;7635;56.696;13.002;2023-05-31T13:46:53;9.65;;;2.38;;
15071;SDS011;7635;56.696;13.002;2023-05-31T13:49:19;4.15;;;2.10;;
15071;SDS011;7635;56.696;13.002;2023-05-31T13:51:48;8.48;;;2.42;;
15071;SDS011;7635;56.696;13.002;2023-05-31T13:54:14;3.58;;;2.22;;
15071;SDS011;7635;56.696;13.002;2023-05-31T13:56:41;6.68;;;2.72;;
15071;SDS011;7635;56.696;13.002;2023-05-31T13:59:08;5.50;;;2.28;;
15071;SDS011;7635;56.696;13.002;2023-05-31T14:01:35;7.68;;;2.22;;
15071;SDS011;7635;56.696;13.002;2023-05-31T14:04:02;6.85;;;2.38;;
15071;SDS011;7635;56.696;13.002;2023-05-31T14:06:28;5.72;;;2.10;;
15071;SDS011;7635;56.696;13.002;2023-05-31T14:08:56;7.82;;;2.60;;
15071;SDS011;7635;56.696;13.002;2023-05-31T14:11:23;5.30;;;1.95;;
15071;SDS011;7635;56.696;13.002;2023-05-31T14:13:52;2.70;;;2.10;;
15071;SDS011;7635;56.696;13.002;2023-05-31T14:16:19;9.07;;;2.33;;
15071;SDS011;7635;56.696;13.002;2023-05-31T14:18:46;3.17;;;1.90;;
15071;SDS011;7635;56.696;13.002;2023-05-31T14:21:12;2.33;;;1.73;;
15071;SDS011;7635;56.696;13.002;2023-05-31T14:23:39;6.28;;;2.15;;
15071;SDS011;7635;56.696;13.002;2023-05-31T14:26:07;8.05;;;1.98;;
15071;SDS011;7635;56.696;13.002;2023-05-31T14:28:34;8.23;;;2.83;;
15071;SDS011;7635;56.696;13.002;2023-05-31T14:31:01;3.97;;;1.80;;
15071;SDS011;7635;56.696;13.002;2023-05-31T14:33:28;4.13;;;1.98;;
15071;SDS011;7635;56.696;13.002;2023-05-31T14:35:54;4.15;;;2.47;;
15071;SDS011;7635;56.696;13.002;2023-05-31T14:38:21;4.65;;;1.73;;
15071;SDS011;7635;56.696;13.002;2023-05-31T14:40:48;4.13;;;1.88;;
15071;SDS011;7635;56.696;13.002;2023-05-31T14:43:17;4.03;;;1.95;;
15071;SDS011;7635;56.696;13.002;2023-05-31T14:45:44;5.20;;;1.98;;
15071;SDS011;7635;56.696;13.002;2023-05-31T14:48:12;4.00;;;2.20;;
15071;SDS011;7635;56.696;13.002;2023-05-31T14:50:38;2.78;;;1.92;;
15071;SDS011;7635;56.696;13.002;2023-05-31T14:53:06;3.63;;;1.65;;
15071;SDS011;7635;56.696;13.002;2023-05-31T14:55:36;9.38;;;2.60;;
15071;SDS011;7635;56.696;13.002;2023-05-31T14:58:03;3.83;;;2.05;;